createdAt,value
2022-08-18T00:02:30.361Z,99125.88
2022-08-18T00:05:14.834Z,99127.88
2022-08-18T00:07:59.359Z,99125.47
2022-08-18T00:10:28.472Z,99123.91
2022-08-18T00:13:01.289Z,99118.13
2022-08-18T00:15:29.708Z,99126.53
2022-08-18T00:18:22.763Z,99124.66
2022-08-18T00:21:38.858Z,99128.25
2022-08-18T00:24:06.416Z,99126.75
2022-08-18T00:26:37.100Z,99127.41
2022-08-18T00:29:15.741Z,99135.00
2022-08-18T00:31:43.042Z,99139.88
2022-08-18T00:34:16.214Z,99133.38
2022-08-18T00:36:58.332Z,99121.69
2022-08-18T00:39:27.435Z,99126.50
2022-08-18T00:42:30.812Z,99129.91
2022-08-18T00:45:25.587Z,99127.22
2022-08-18T00:48:06.080Z,99129.81
2022-08-18T00:50:54.593Z,99124.59
2022-08-18T00:53:44.418Z,99113.00
2022-08-18T00:56:30.807Z,99120.06
2022-08-18T00:59:09.090Z,99114.84
2022-08-18T01:01:38.328Z,99113.69
2022-08-18T01:04:11.781Z,99111.72
2022-08-18T01:07:00.906Z,99098.84
2022-08-18T01:09:29.992Z,99098.53
2022-08-18T01:11:57.233Z,99096.00
2022-08-18T01:14:26.886Z,99095.44
2022-08-18T01:17:32.193Z,99093.72
2022-08-18T01:20:39.200Z,99091.19
2022-08-18T01:23:23.841Z,99088.69
2022-08-18T01:26:02.793Z,99077.94
2022-08-18T01:28:54.392Z,99076.06
2022-08-18T01:31:54.544Z,99098.28
2022-08-18T01:34:40.839Z,99087.47
2022-08-18T01:37:18.393Z,99094.97
2022-08-18T01:41:24.376Z,99091.63
2022-08-18T01:42:52.499Z,99093.81
2022-08-18T01:45:43.833Z,99098.44
2022-08-18T01:48:37.595Z,99095.22
2022-08-18T01:51:07.379Z,99098.22
2022-08-18T01:53:43.761Z,99091.72
2022-08-18T01:56:23.117Z,99087.72
2022-08-18T01:58:51.219Z,99089.31
2022-08-18T02:01:36.688Z,99084.25
2022-08-18T02:04:33.946Z,99093.84
2022-08-18T02:07:17.463Z,99104.03
2022-08-18T02:09:59.985Z,99104.75
2022-08-18T02:12:33.256Z,99101.06
2022-08-18T02:15:08.366Z,99102.34
2022-08-18T02:17:39.372Z,99103.06
2022-08-18T02:20:18.751Z,99110.38
2022-08-18T02:22:49.563Z,99109.13
2022-08-18T02:25:24.929Z,99100.53
2022-08-18T02:27:58.851Z,99111.94
2022-08-18T02:30:27.156Z,99112.06
2022-08-18T02:32:58.227Z,99115.66
2022-08-18T02:35:25.770Z,99127.53
2022-08-18T02:38:07.640Z,99114.34
2022-08-18T02:40:36.103Z,99123.72
2022-08-18T02:43:09.508Z,99108.91
2022-08-18T02:45:42.628Z,99111.91
2022-08-18T02:48:32.033Z,99106.66
2022-08-18T02:51:15.325Z,99101.69
2022-08-18T02:53:45.829Z,99099.47
2022-08-18T02:56:40.193Z,99105.69
2022-08-18T02:59:10.503Z,99106.63
2022-08-18T03:01:46.878Z,99113.00
2022-08-18T03:04:38.717Z,99108.75
2022-08-18T03:07:08.526Z,99110.31
2022-08-18T03:09:42.828Z,99103.97
2022-08-18T03:12:10.642Z,99107.06
2022-08-18T03:14:40.437Z,99105.94
2022-08-18T03:17:09.425Z,99098.00
2022-08-18T03:19:37.209Z,99085.59
2022-08-18T03:22:16.075Z,99095.06
2022-08-18T03:25:16.276Z,99104.25
2022-08-18T03:27:43.283Z,99100.44
2022-08-18T03:30:11.946Z,99102.28
2022-08-18T03:32:41.071Z,99111.84
2022-08-18T03:35:18.933Z,99108.75
2022-08-18T03:37:46.115Z,99118.06
2022-08-18T03:40:25.367Z,99107.88
2022-08-18T03:42:52.481Z,99107.91
2022-08-18T03:45:32.349Z,99109.19
2022-08-18T03:48:28.247Z,99114.81
2022-08-18T03:51:27.001Z,99113.47
2022-08-18T03:54:02.263Z,99119.31
2022-08-18T03:56:41.419Z,99125.00
2022-08-18T03:59:23.942Z,99122.22
2022-08-18T04:01:59.565Z,99123.66
2022-08-18T04:04:36.060Z,99124.94
2022-08-18T04:07:17.622Z,99130.78
2022-08-18T04:09:50.880Z,99143.69
2022-08-18T04:12:41.300Z,99138.25
2022-08-18T04:15:09.569Z,99137.13
2022-08-18T04:17:56.290Z,99137.44
2022-08-18T04:20:38.941Z,99137.22
2022-08-18T04:23:43.643Z,99135.88
2022-08-18T04:26:24.468Z,99129.00
2022-08-18T04:28:51.816Z,99128.72
2022-08-18T04:31:25.030Z,99124.38
2022-08-18T04:33:53.306Z,99123.25
2022-08-18T04:36:57.454Z,99131.75
2022-08-18T04:39:26.877Z,99129.56
2022-08-18T04:42:01.751Z,99126.19
2022-08-18T04:44:29.893Z,99132.72
2022-08-18T04:47:01.064Z,99135.81
2022-08-18T04:49:32.334Z,99136.28
2022-08-18T04:52:40.563Z,99135.59
2022-08-18T04:55:30.683Z,99140.38
2022-08-18T04:58:01.106Z,99141.81
2022-08-18T05:00:28.162Z,99130.28
2022-08-18T05:03:51.534Z,99134.22
2022-08-18T05:06:30.970Z,99142.28
2022-08-18T05:09:07.568Z,99145.25
2022-08-18T05:11:58.106Z,99141.56
2022-08-18T05:14:25.546Z,99137.34
2022-08-18T05:16:58.941Z,99147.06
2022-08-18T05:19:36.045Z,99135.31
2022-08-18T05:22:27.848Z,99135.88
2022-08-18T05:27:56.464Z,99142.53
2022-08-18T05:30:24.750Z,99143.22
2022-08-18T05:33:16.093Z,99143.47
2022-08-18T05:36:03.675Z,99154.47
2022-08-18T05:38:59.921Z,99152.66
2022-08-18T05:41:34.156Z,99160.41
2022-08-18T05:44:07.875Z,99167.09
2022-08-18T05:46:50.800Z,99164.47
2022-08-18T05:49:21.252Z,99157.84
2022-08-18T05:52:03.466Z,99161.63
2022-08-18T05:55:01.628Z,99164.16
2022-08-18T05:57:38.514Z,99166.94
2022-08-18T06:00:09.254Z,99160.31
2022-08-18T06:02:51.535Z,99165.13
2022-08-18T06:05:28.956Z,99167.16
2022-08-18T06:08:17.165Z,99163.41
2022-08-18T06:10:52.235Z,99163.63
2022-08-18T06:14:01.744Z,99158.13
2022-08-18T06:17:13.323Z,99163.63
2022-08-18T06:20:35.133Z,99164.06
2022-08-18T06:23:41.825Z,99160.03
2022-08-18T06:26:59.664Z,99164.78
2022-08-18T06:30:13.200Z,99161.06
2022-08-18T06:33:04.852Z,99156.72
2022-08-18T06:35:40.871Z,99147.56
2022-08-18T06:38:46.166Z,99159.19
2022-08-18T06:41:42.874Z,99162.06
2022-08-18T06:44:45.856Z,99167.28
2022-08-18T06:47:32.854Z,99158.91
2022-08-18T06:50:44.803Z,99166.66
2022-08-18T06:53:26.787Z,99156.47
2022-08-18T06:55:57.225Z,99171.97
2022-08-18T06:58:30.923Z,99161.06
2022-08-18T07:01:37.503Z,99170.56
2022-08-18T07:04:08.191Z,99170.31
2022-08-18T07:06:39.401Z,99178.56
2022-08-18T07:09:24.408Z,99164.47
2022-08-18T07:12:09.399Z,99172.91
2022-08-18T07:14:50.851Z,99170.50
2022-08-18T07:17:53.139Z,99167.22
2022-08-18T07:20:26.060Z,99172.72
2022-08-18T07:23:08.107Z,99168.03
2022-08-18T07:25:45.790Z,99174.56
2022-08-18T07:28:50.181Z,99163.22
2022-08-18T07:31:26.717Z,99162.66
2022-08-18T07:34:12.729Z,99156.84
2022-08-18T07:37:01.845Z,99156.84
2022-08-18T07:39:48.377Z,99160.44
2022-08-18T07:43:02.108Z,99158.94
2022-08-18T07:45:38.661Z,99160.03
2022-08-18T07:51:20.021Z,99149.59
2022-08-18T07:54:05.361Z,99149.09
2022-08-18T07:56:56.285Z,99158.56
2022-08-18T07:59:33.422Z,99165.19
2022-08-18T08:02:18.872Z,99166.81
2022-08-18T08:05:08.807Z,99168.84
2022-08-18T08:07:44.135Z,99166.88
2022-08-18T08:10:39.969Z,99172.25
2022-08-18T08:13:51.753Z,99169.00
2022-08-18T08:16:46.566Z,99168.78
2022-08-18T08:19:49.393Z,99172.94
2022-08-18T08:22:29.766Z,99176.13
2022-08-18T08:25:46.450Z,99176.63
2022-08-18T08:28:43.281Z,99178.84
2022-08-18T08:31:54.818Z,99181.69
2022-08-18T08:34:54.789Z,99183.63
2022-08-18T08:37:33.892Z,99200.50
2022-08-18T08:40:03.082Z,99191.31
2022-08-18T08:42:45.978Z,99192.16
2022-08-18T08:45:22.252Z,99188.44
2022-08-18T08:48:11.678Z,99195.56
2022-08-18T08:51:33.763Z,99193.50
2022-08-18T08:54:23.855Z,99191.41
2022-08-18T08:57:01.778Z,99189.09
2022-08-18T08:59:29.946Z,99189.28
2022-08-18T09:02:48.923Z,99189.50
2022-08-18T09:05:45.388Z,99192.84
2022-08-18T09:08:41.631Z,99185.91
2022-08-18T09:11:27.134Z,99177.06
2022-08-18T09:14:07.330Z,99170.94
2022-08-18T09:16:59.750Z,99165.22
2022-08-18T09:20:09.291Z,99165.13
2022-08-18T09:22:52.737Z,99172.19
2022-08-18T09:25:48.506Z,99176.28
2022-08-18T09:28:23.923Z,99167.13
2022-08-18T09:31:10.152Z,99165.94
2022-08-18T09:33:46.012Z,99165.78
2022-08-18T09:36:44.515Z,99161.66
2022-08-18T09:39:59.073Z,99157.66
2022-08-18T09:42:50.655Z,99158.66
2022-08-18T09:45:33.337Z,99154.34
2022-08-18T09:48:30.825Z,99149.56
2022-08-18T09:51:32.930Z,99140.13
2022-08-18T09:54:32.191Z,99134.56
2022-08-18T09:57:19.671Z,99136.03
2022-08-18T10:02:38.688Z,99127.47
2022-08-18T10:05:20.314Z,99124.50
2022-08-18T10:08:21.284Z,99128.69
2022-08-18T10:11:40.935Z,99113.81
2022-08-18T10:14:45.698Z,99106.78
2022-08-18T10:17:35.199Z,99099.94
2022-08-18T10:20:26.187Z,99092.16
2022-08-18T10:23:01.337Z,99085.75
2022-08-18T10:25:48.422Z,99085.47
2022-08-18T10:28:57.491Z,99073.94
2022-08-18T10:31:27.313Z,99074.22
2022-08-18T10:34:16.337Z,99077.53
2022-08-18T10:37:19.525Z,99075.91
2022-08-18T10:40:02.111Z,99068.94
2022-08-18T10:42:39.243Z,99082.06
2022-08-18T10:46:24.438Z,99063.06
2022-08-18T10:49:21.790Z,99065.31
2022-08-18T10:52:11.060Z,99065.81
2022-08-18T10:55:06.259Z,99054.38
2022-08-18T10:58:01.821Z,99052.28
2022-08-18T11:01:01.259Z,99050.25
2022-08-18T11:03:55.962Z,99054.66
2022-08-18T11:06:26.316Z,99039.53
2022-08-18T11:09:04.249Z,99044.59
2022-08-18T11:12:02.125Z,99040.22
2022-08-18T11:14:56.282Z,99045.88
2022-08-18T11:18:10.402Z,99046.41
2022-08-18T11:20:42.994Z,99041.06
2022-08-18T11:23:17.286Z,99036.31
2022-08-18T11:26:18.360Z,99039.56
2022-08-18T11:28:49.871Z,99033.00
2022-08-18T11:31:19.458Z,99026.53
2022-08-18T11:33:53.084Z,99031.47
2022-08-18T11:36:31.099Z,99029.41
2022-08-18T11:39:01.356Z,99032.13
2022-08-18T11:41:48.007Z,99024.22
2022-08-18T11:44:25.135Z,99022.91
2022-08-18T11:47:09.495Z,99033.41
2022-08-18T11:50:08.965Z,99020.25
2022-08-18T11:53:13.784Z,99012.59
2022-08-18T11:56:03.398Z,99015.91
2022-08-18T11:58:59.990Z,99015.84
2022-08-18T12:01:57.147Z,99008.56
2022-08-18T12:04:40.200Z,99007.69
2022-08-18T12:07:51.109Z,99008.13
2022-08-18T12:10:47.537Z,99003.22
2022-08-18T12:13:25.764Z,98991.41
2022-08-18T12:16:35.366Z,98986.31
2022-08-18T12:19:15.335Z,98989.47
2022-08-18T12:22:11.933Z,98990.44
2022-08-18T12:24:40.424Z,98987.03
2022-08-18T12:27:21.277Z,98990.78
2022-08-18T12:32:56.092Z,98986.22
2022-08-18T12:35:30.344Z,98997.28
2022-08-18T12:38:00.359Z,98991.06
2022-08-18T12:40:43.463Z,99002.56
2022-08-18T12:43:11.242Z,98996.88
2022-08-18T12:45:41.656Z,99004.75
2022-08-18T12:48:26.988Z,99008.41
2022-08-18T12:50:58.415Z,99005.94
2022-08-18T12:53:59.339Z,99008.47
2022-08-18T12:56:36.340Z,99015.75
2022-08-18T12:59:07.170Z,99021.94
2022-08-18T13:01:40.461Z,99017.28
2022-08-18T13:04:26.950Z,99012.72
2022-08-18T13:07:00.545Z,99014.69
2022-08-18T13:09:52.856Z,99019.25
2022-08-18T13:12:27.335Z,99017.56
2022-08-18T13:14:55.448Z,99013.38
2022-08-18T13:17:33.532Z,99002.78
2022-08-18T13:20:09.889Z,98999.50
2022-08-18T13:22:40.643Z,98996.81
2022-08-18T13:25:28.858Z,98999.59
2022-08-18T13:28:15.468Z,98996.88
2022-08-18T13:30:46.817Z,98998.47
2022-08-18T13:33:53.529Z,98995.44
2022-08-18T13:36:02.006Z,99002.09
2022-08-18T13:38:30.088Z,99003.03
2022-08-18T13:41:06.278Z,98988.44
2022-08-18T13:43:39.175Z,98997.81
2022-08-18T13:46:08.213Z,98989.19
2022-08-18T13:48:38.155Z,99001.22
2022-08-18T13:51:11.379Z,99001.31
2022-08-18T13:53:50.963Z,99000.63
2022-08-18T13:56:31.245Z,98990.91
2022-08-18T13:58:59.034Z,98996.03
2022-08-18T14:01:44.528Z,98980.91
2022-08-18T14:04:15.102Z,98980.06
2022-08-18T14:06:56.436Z,98975.16
2022-08-18T14:09:42.481Z,98972.41
2022-08-18T14:12:29.620Z,98973.50
2022-08-18T14:15:00.856Z,98973.72
2022-08-18T14:17:51.669Z,98965.25
2022-08-18T14:20:48.148Z,98951.38
2022-08-18T14:23:39.862Z,98959.75
2022-08-18T14:26:45.997Z,98946.84
2022-08-18T14:29:47.015Z,98952.69
2022-08-18T14:32:07.759Z,98943.63
2022-08-18T14:34:41.453Z,98940.31
2022-08-18T14:37:43.028Z,98949.88
2022-08-18T14:40:20.467Z,98952.94
2022-08-18T14:42:54.497Z,98946.63
2022-08-18T14:45:27.625Z,98948.56
2022-08-18T14:48:06.695Z,98958.75
2022-08-18T14:50:44.847Z,98950.09
2022-08-18T14:53:37.174Z,98946.34
2022-08-18T14:56:08.749Z,98940.44
2022-08-18T14:58:37.945Z,98935.09
2022-08-18T15:01:10.375Z,98948.31
2022-08-18T15:03:39.812Z,98951.91
2022-08-18T15:06:08.325Z,98957.00
2022-08-18T15:08:49.071Z,98949.50
2022-08-18T15:11:24.915Z,98947.91
2022-08-18T15:13:55.146Z,98950.97
2022-08-18T15:16:31.532Z,98955.25
2022-08-18T15:19:59.858Z,98952.13
2022-08-18T15:22:29.178Z,98949.53
2022-08-18T15:25:26.320Z,98950.53
2022-08-18T15:27:56.340Z,98960.13
2022-08-18T15:30:26.713Z,98953.09
2022-08-18T15:32:59.368Z,98956.28
2022-08-18T15:35:35.714Z,98968.06
2022-08-18T15:38:07.399Z,98957.09
2022-08-18T15:40:41.616Z,98951.06
2022-08-18T15:43:12.916Z,98952.69
2022-08-18T15:45:56.473Z,98942.75
2022-08-18T15:48:28.865Z,98945.00
2022-08-18T15:51:11.747Z,98959.88
2022-08-18T15:53:57.903Z,98955.47
2022-08-18T15:56:43.339Z,98959.97
2022-08-18T15:59:12.840Z,98963.88
2022-08-18T16:01:43.438Z,98966.03
2022-08-18T16:04:24.284Z,98956.59
2022-08-18T16:06:52.526Z,98956.53
2022-08-18T16:09:33.995Z,98961.81
2022-08-18T16:12:50.639Z,98946.81
2022-08-18T16:15:23.466Z,98946.38
2022-08-18T16:18:00.194Z,98938.28
2022-08-18T16:20:29.670Z,98941.03
2022-08-18T16:22:59.185Z,98930.69
2022-08-18T16:25:28.997Z,98928.88
2022-08-18T16:28:13.645Z,98926.59
2022-08-18T16:30:47.466Z,98926.38
2022-08-18T16:33:18.555Z,98924.44
2022-08-18T16:36:25.649Z,98928.25
2022-08-18T16:38:53.955Z,98915.50
2022-08-18T16:41:29.636Z,98907.72
2022-08-18T16:43:58.940Z,98905.78
2022-08-18T16:46:27.864Z,98907.56
2022-08-18T16:49:11.173Z,98904.56
2022-08-18T16:51:45.002Z,98897.88
2022-08-18T16:54:14.666Z,98896.56
2022-08-18T16:57:10.828Z,98892.16
2022-08-18T16:59:57.732Z,98890.94
2022-08-18T17:02:47.111Z,98894.28
2022-08-18T17:05:24.232Z,98894.66
2022-08-18T17:07:52.334Z,98889.38
2022-08-18T17:13:40.805Z,98890.72
2022-08-18T17:16:16.911Z,98892.53
2022-08-18T17:18:46.050Z,98888.81
2022-08-18T17:21:50.425Z,98908.22
2022-08-18T17:24:31.721Z,98897.97
2022-08-18T17:27:27.121Z,98904.09
2022-08-18T17:30:40.017Z,98901.09
2022-08-18T17:33:16.129Z,98914.56
2022-08-18T17:35:56.811Z,98916.25
2022-08-18T17:38:49.713Z,98919.00
2022-08-18T17:41:25.602Z,98921.38
2022-08-18T17:43:56.548Z,98914.53
2022-08-18T17:46:37.699Z,98921.94
2022-08-18T17:49:18.170Z,98923.75
2022-08-18T17:51:52.607Z,98920.31
2022-08-18T17:54:46.558Z,98919.31
2022-08-18T17:57:33.751Z,98930.69
2022-08-18T18:00:14.191Z,98926.56
2022-08-18T18:02:45.481Z,98939.47
2022-08-18T18:05:16.270Z,98948.09
2022-08-18T18:07:52.252Z,98946.22
2022-08-18T18:10:56.491Z,98944.34
2022-08-18T18:13:37.367Z,98943.47
2022-08-18T18:16:26.251Z,98943.47
2022-08-18T18:19:06.560Z,98948.31
2022-08-18T18:21:58.947Z,98942.25
2022-08-18T18:24:32.598Z,98942.00
2022-08-18T18:27:22.748Z,98938.03
2022-08-18T18:30:07.438Z,98937.63
2022-08-18T18:32:59.438Z,98934.41
2022-08-18T18:35:34.285Z,98932.75
2022-08-18T18:38:23.829Z,98924.34
2022-08-18T18:41:38.025Z,98920.78
2022-08-18T18:44:10.335Z,98924.75
2022-08-18T18:46:53.587Z,98912.81
2022-08-18T18:49:42.559Z,98906.94
2022-08-18T18:52:41.442Z,98904.41
2022-08-18T18:55:17.641Z,98901.88
2022-08-18T18:58:14.614Z,98897.88
2022-08-18T19:00:59.704Z,98894.69
2022-08-18T19:04:07.518Z,98889.59
2022-08-18T19:06:48.658Z,98884.72
2022-08-18T19:09:30.058Z,98891.41
2022-08-18T19:12:43.602Z,98889.25
2022-08-18T19:15:19.806Z,98885.25
2022-08-18T19:18:02.423Z,98889.44
2022-08-18T19:20:37.263Z,98886.66
2022-08-18T19:23:06.848Z,98878.81
2022-08-18T19:25:51.535Z,98892.13
2022-08-18T19:28:36.997Z,98898.41
2022-08-18T19:31:40.091Z,98890.78
2022-08-18T19:34:19.057Z,98881.75
2022-08-18T19:37:14.930Z,98886.91
2022-08-18T19:40:05.796Z,98885.66
2022-08-18T19:42:45.534Z,98884.72
2022-08-18T19:45:45.804Z,98880.78
2022-08-18T19:48:39.461Z,98874.75
2022-08-18T19:51:36.370Z,98875.59
2022-08-18T19:54:40.540Z,98875.00
2022-08-18T19:57:26.181Z,98877.38
2022-08-18T20:00:31.191Z,98865.59
2022-08-18T20:03:35.431Z,98873.88
2022-08-18T20:06:27.637Z,98869.50
2022-08-18T20:09:02.596Z,98857.63
2022-08-18T20:11:49.797Z,98862.31
2022-08-18T20:14:19.300Z,98859.84
2022-08-18T20:17:23.017Z,98859.03
2022-08-18T20:19:59.766Z,98855.97
2022-08-18T20:22:43.893Z,98851.81
2022-08-18T20:25:20.305Z,98843.97
2022-08-18T20:28:13.308Z,98837.59
2022-08-18T20:31:12.852Z,98840.81
2022-08-18T20:34:04.404Z,98841.94
2022-08-18T20:36:37.062Z,98838.88
2022-08-18T20:39:34.671Z,98835.91
2022-08-18T20:42:07.829Z,98837.56
2022-08-18T20:44:45.623Z,98846.75
2022-08-18T20:47:35.334Z,98852.56
2022-08-18T20:50:40.549Z,98838.66
2022-08-18T20:53:35.024Z,98831.94
2022-08-18T20:56:43.018Z,98829.63
2022-08-18T20:59:23.352Z,98834.13
2022-08-18T21:01:59.415Z,98820.19
2022-08-18T21:04:50.695Z,98823.72
2022-08-18T21:07:40.317Z,98825.97
2022-08-18T21:10:23.751Z,98821.97
2022-08-18T21:13:04.426Z,98827.28
2022-08-18T21:15:38.344Z,98822.63
2022-08-18T21:18:25.489Z,98822.53
2022-08-18T21:21:27.108Z,98825.16
2022-08-18T21:24:00.255Z,98834.13
2022-08-18T21:26:48.465Z,98842.56
2022-08-18T21:29:16.887Z,98851.16
2022-08-18T21:31:48.316Z,98844.69
2022-08-18T21:34:34.405Z,98839.84
2022-08-18T21:37:08.296Z,98857.97
2022-08-18T21:39:59.918Z,98852.94
2022-08-18T21:43:05.599Z,98857.72
2022-08-18T21:45:59.686Z,98863.16
2022-08-18T21:48:31.859Z,98867.03
2022-08-18T21:51:02.658Z,98865.44
2022-08-18T21:53:41.870Z,98869.19
2022-08-18T21:56:29.784Z,98872.19
2022-08-18T21:59:17.439Z,98873.41
2022-08-18T22:01:57.284Z,98875.19
2022-08-18T22:04:47.735Z,98873.59
2022-08-18T22:07:35.691Z,98870.59
2022-08-18T22:10:45.671Z,98880.41
2022-08-18T22:13:41.621Z,98883.00
2022-08-18T22:16:30.482Z,98876.34
2022-08-18T22:19:19.131Z,98888.13
2022-08-18T22:22:29.473Z,98887.91
2022-08-18T22:25:03.127Z,98882.59
2022-08-18T22:27:31.469Z,98878.06
2022-08-18T22:30:04.456Z,98880.41
2022-08-18T22:32:46.136Z,98886.91
2022-08-18T22:35:35.572Z,98889.16
2022-08-18T22:38:21.666Z,98885.59
2022-08-18T22:41:26.350Z,98884.66
2022-08-18T22:43:54.642Z,98887.56
2022-08-18T22:46:25.426Z,98891.19
2022-08-18T22:48:56.487Z,98900.09
2022-08-18T22:51:27.156Z,98900.47
2022-08-18T22:54:02.642Z,98903.34
2022-08-18T22:56:34.303Z,98898.94
2022-08-18T22:59:23.702Z,98891.69
2022-08-18T23:01:58.620Z,98897.13
2022-08-18T23:04:27.486Z,98889.13
2022-08-18T23:06:56.576Z,98876.59
2022-08-18T23:09:40.869Z,98880.69
2022-08-18T23:12:14.025Z,98889.47
2022-08-18T23:14:46.878Z,98880.03
2022-08-18T23:17:38.652Z,98884.41
2022-08-18T23:20:18.205Z,98877.03
2022-08-18T23:23:01.754Z,98879.25
2022-08-18T23:25:42.287Z,98878.97
2022-08-18T23:28:12.282Z,98869.72
2022-08-18T23:30:49.542Z,98870.91
2022-08-18T23:33:21.921Z,98871.75
2022-08-18T23:35:58.250Z,98880.28
2022-08-18T23:38:31.712Z,98880.63
2022-08-18T23:41:21.894Z,98879.94
2022-08-18T23:43:51.983Z,98869.50
2022-08-18T23:46:32.207Z,98869.38
2022-08-18T23:49:01.415Z,98867.84
2022-08-18T23:51:44.521Z,98862.09
2022-08-18T23:54:32.318Z,98863.06
2022-08-18T23:57:00.136Z,98853.06
2022-08-18T23:59:43.532Z,98858.53
